Terminal Aerodrome Forecast
Issued by NWS Bismarck, ND

Home | Current Version | Previous Version | Graphics & Text | Print | Product List | Glossary On
Versions: 1 2 3 4 5 6 7 8 9 10 11 12 13 14 15 16 17
757
FTUS43 KBIS 221935 AAA
TAFISN
TAF AMD
KISN 221935Z 2220/2318 14015G22KT P6SM SCT150
     FM222200 11016G23KT P6SM VCTS SCT120CB
     FM230300 13015G21KT P6SM -SHRA VCTS BKN090CB
     FM230600 13012KT P6SM BKN150 WS020/14040KT
     FM230900 13012KT P6SM BKN140
     FM231100 18010KT P6SM BKN140
     FM231700 27017G24KT P6SM FEW250=

USA.gov is the U.S. government's official web portal to all federal, state and local government web resources and services.